Time;durP1;ratioP1;P1;durP2;ratioP2;P2;SDS_P1;SDS_P2;PMS_P1;PMS_P2;Temp;Humidity;BMP_temperature;BMP_pressure;BME280_temperature;BME280_humidity;BME280_pressure;Samples;Min_cycle;Max_cycle;Signal;HPM_P1;HPM_P2
2022/10/05 00:01:46;;;;;;;;;;;29.90;90.30;;;;;;5169158;27;20179;-46
2022/10/05 00:04:17;;;;;;;;;;;29.90;90.40;;;;;;5168412;27;24083;-47
2022/10/05 00:06:44;;;;;;;;;;;29.90;90.40;;;;;;5169185;27;19930;-48
2022/10/05 00:09:19;;;;;;;;;;;29.80;90.40;;;;;;5168222;27;25122;-43
2022/10/05 00:11:46;;;;;;;;;;;29.80;90.40;;;;;;5168509;27;20079;-43
2022/10/05 00:14:16;;;;;;;;;;;29.80;90.40;;;;;;5167277;27;19903;-46
2022/10/05 00:16:43;;;;;;;;;;;29.80;90.40;;;;;;5149952;27;24081;-47
2022/10/05 00:19:21;;;;;;;;;;;29.90;90.40;;;;;;5150151;27;19899;-44
2022/10/05 00:21:47;;;;;;;;;;;29.80;90.40;;;;;;5150001;27;20087;-45
2022/10/05 00:24:17;;;;;;;;;;;29.80;90.40;;;;;;5168511;27;20105;-48
2022/10/05 00:26:43;;;;;;;;;;;29.80;90.40;;;;;;5168148;27;19967;-45
2022/10/05 00:29:27;;;;;;;;;;;29.80;90.40;;;;;;5167639;27;20187;-44
2022/10/05 00:31:53;;;;;;;;;;;29.80;90.40;;;;;;5168245;27;24106;-44
2022/10/05 00:34:19;;;;;;;;;;;29.80;90.40;;;;;;5167548;27;24084;-44
2022/10/05 00:36:45;;;;;;;;;;;29.80;90.40;;;;;;5168239;27;19911;-45
2022/10/05 00:39:11;;;;;;;;;;;29.70;90.50;;;;;;5149583;27;20098;-47
2022/10/05 00:41:56;;;;;;;;;;;29.80;90.70;;;;;;5167806;27;24118;-51
2022/10/05 00:44:29;;;;;;;;;;;29.80;90.50;;;;;;5148762;27;19966;-43
2022/10/05 00:46:56;;;;;;;;;;;29.80;90.50;;;;;;5168173;27;19978;-43
2022/10/05 00:49:34;;;;;;;;;;;29.70;90.50;;;;;;5168240;27;20008;-45
2022/10/05 00:52:21;;;;;;;;;;;29.70;90.50;;;;;;5167553;27;24071;-54
2022/10/05 00:55:10;;;;;;;;;;;29.70;90.70;;;;;;5052481;27;24087;-43
2022/10/05 00:57:56;;;;;;;;;;;29.60;90.90;;;;;;5035203;28;19940;-47
2022/10/05 01:00:24;;;;;;;;;;;29.60;91.00;;;;;;5090625;27;19944;-45
2022/10/05 01:02:56;;;;;;;;;;;29.50;91.20;;;;;;5082491;27;24087;-44
2022/10/05 01:05:28;;;;;;;;;;;29.50;91.20;;;;;;5105803;27;19944;-47
2022/10/05 01:08:02;;;;;;;;;;;29.50;91.30;;;;;;5056696;27;24099;-57
2022/10/05 01:10:41;;;;;;;;;;;29.50;91.40;;;;;;5065964;27;19954;-49
2022/10/05 01:13:08;;;;;;;;;;;29.40;91.30;;;;;;5065878;27;24080;-50
2022/10/05 01:15:40;;;;;;;;;;;29.40;91.30;;;;;;5110274;27;19909;-50
2022/10/05 01:18:10;;;;;;;;;;;29.40;91.30;;;;;;5062157;28;20185;-48
2022/10/05 01:20:42;;;;;;;;;;;29.30;91.30;;;;;;5060900;27;20127;-47
2022/10/05 01:23:23;;;;;;;;;;;29.30;91.40;;;;;;5055295;28;25099;-48
2022/10/05 01:26:04;;;;;;;;;;;29.30;91.50;;;;;;5061102;27;19938;-52
2022/10/05 01:28:36;;;;;;;;;;;29.20;91.50;;;;;;5042382;28;20138;-47
2022/10/05 01:31:09;;;;;;;;;;;29.20;91.70;;;;;;5119045;27;20091;-50
2022/10/05 01:33:43;;;;;;;;;;;29.20;91.70;;;;;;5086965;27;25099;-49
2022/10/05 01:36:12;;;;;;;;;;;29.10;91.60;;;;;;5062030;27;19988;-46
2022/10/05 01:38:58;;;;;;;;;;;29.10;91.60;;;;;;5069840;27;19944;-48
2022/10/05 01:41:39;;;;;;;;;;;29.10;91.60;;;;;;5114879;27;19959;-51
2022/10/05 01:44:15;;;;;;;;;;;29.10;91.50;;;;;;5111930;27;19911;-55
2022/10/05 01:47:14;;;;;;;;;;;29.10;91.50;;;;;;5149100;27;24121;-55
2022/10/05 01:49:51;;;;;;;;;;;29.10;91.50;;;;;;5059427;28;19948;-49
2022/10/05 01:52:26;;;;;;;;;;;29.00;91.70;;;;;;5105821;27;24112;-48
2022/10/05 01:55:02;;;;;;;;;;;29.00;91.70;;;;;;5049820;28;19912;-45
2022/10/05 01:57:48;;;;;;;;;;;29.00;91.60;;;;;;5061295;28;19909;-46
2022/10/05 02:00:16;;;;;;;;;;;29.00;91.60;;;;;;5061422;28;19949;-50
2022/10/05 02:02:57;;;;;;;;;;;29.00;91.80;;;;;;5056076;27;24118;-48
2022/10/05 02:05:25;;;;;;;;;;;29.00;91.80;;;;;;5096037;27;24132;-51
2022/10/05 02:07:58;;;;;;;;;;;29.00;91.80;;;;;;5055511;27;24086;-51
2022/10/05 02:10:44;;;;;;;;;;;29.00;91.80;;;;;;5085785;27;19908;-53
2022/10/05 02:13:14;;;;;;;;;;;29.00;91.80;;;;;;5127337;27;20224;-46
2022/10/05 02:15:45;;;;;;;;;;;28.90;91.70;;;;;;5092970;27;19930;-49
2022/10/05 02:18:13;;;;;;;;;;;28.90;91.70;;;;;;5123296;27;19907;-49
2022/10/05 02:20:41;;;;;;;;;;;28.90;91.80;;;;;;5056163;28;24097;-47
2022/10/05 02:23:10;;;;;;;;;;;28.90;91.90;;;;;;5150026;27;25106;-54
2022/10/05 02:25:37;;;;;;;;;;;28.90;91.90;;;;;;5099082;27;19938;-51
2022/10/05 02:28:07;;;;;;;;;;;28.90;91.90;;;;;;5145973;27;24095;-47
2022/10/05 02:30:38;;;;;;;;;;;28.90;91.90;;;;;;5121487;27;20185;-45
2022/10/05 02:33:07;;;;;;;;;;;28.90;91.90;;;;;;5041094;28;19905;-53
2022/10/05 02:35:33;;;;;;;;;;;28.80;91.90;;;;;;5046065;27;24099;-46
2022/10/05 02:38:22;;;;;;;;;;;28.80;91.90;;;;;;5134322;27;19907;-46
2022/10/05 02:41:10;;;;;;;;;;;28.80;91.90;;;;;;5118230;27;20178;-54
2022/10/05 02:43:50;;;;;;;;;;;28.80;91.90;;;;;;5160547;27;24063;-55
2022/10/05 02:46:35;;;;;;;;;;;28.80;91.80;;;;;;5053295;27;25078;-48
2022/10/05 02:49:08;;;;;;;;;;;28.80;91.80;;;;;;5059883;28;19905;-51
2022/10/05 02:51:49;;;;;;;;;;;28.80;91.90;;;;;;5060927;28;20091;-50
2022/10/05 02:54:21;;;;;;;;;;;28.80;91.90;;;;;;5134570;27;24149;-54
2022/10/05 02:57:04;;;;;;;;;;;28.70;91.80;;;;;;5055488;28;19928;-50
2022/10/05 02:59:35;;;;;;;;;;;28.70;91.80;;;;;;5065550;27;19905;-51
2022/10/05 03:02:05;;;;;;;;;;;28.70;91.90;;;;;;5100276;27;19914;-48
2022/10/05 03:04:34;;;;;;;;;;;28.70;92.00;;;;;;5065479;27;24060;-47
2022/10/05 03:07:12;;;;;;;;;;;28.70;91.90;;;;;;5052845;27;19909;-48
2022/10/05 03:09:43;;;;;;;;;;;28.60;92.00;;;;;;5106645;28;20172;-53
2022/10/05 03:12:15;;;;;;;;;;;28.60;92.20;;;;;;5142987;27;19978;-49
2022/10/05 03:14:46;;;;;;;;;;;28.60;92.10;;;;;;5068350;27;24080;-49
2022/10/05 03:17:17;;;;;;;;;;;28.60;92.00;;;;;;5058596;28;19908;-54
2022/10/05 03:19:59;;;;;;;;;;;28.60;92.10;;;;;;5049609;28;19904;-50
2022/10/05 03:22:28;;;;;;;;;;;28.60;92.10;;;;;;5060111;28;24077;-48
2022/10/05 03:25:01;;;;;;;;;;;28.60;92.20;;;;;;5059949;27;24070;-46
2022/10/05 03:27:27;;;;;;;;;;;28.60;92.30;;;;;;5063050;27;19919;-46
2022/10/05 03:29:58;;;;;;;;;;;28.60;92.20;;;;;;5059506;27;25084;-49
2022/10/05 03:32:28;;;;;;;;;;;28.60;92.20;;;;;;5049949;28;19908;-46
2022/10/05 03:35:15;;;;;;;;;;;28.60;92.30;;;;;;5089234;27;24107;-46
2022/10/05 03:38:11;;;;;;;;;;;28.50;92.20;;;;;;5132164;27;20008;-48
2022/10/05 03:40:40;;;;;;;;;;;28.50;92.20;;;;;;5061235;28;25101;-48
2022/10/05 03:43:09;;;;;;;;;;;28.50;92.30;;;;;;5081913;27;19905;-49
2022/10/05 03:45:47;;;;;;;;;;;28.50;92.30;;;;;;5106198;27;25092;-50
2022/10/05 03:48:16;;;;;;;;;;;28.50;92.20;;;;;;5050967;28;20105;-51
2022/10/05 03:50:45;;;;;;;;;;;28.50;92.10;;;;;;5052693;27;20039;-49
2022/10/05 03:53:15;;;;;;;;;;;28.50;92.00;;;;;;5158317;27;19899;-50
2022/10/05 03:55:44;;;;;;;;;;;28.40;92.10;;;;;;5117694;27;20010;-48
2022/10/05 03:58:20;;;;;;;;;;;28.40;92.00;;;;;;5046001;28;19909;-49
2022/10/05 04:00:49;;;;;;;;;;;28.40;92.00;;;;;;5086316;27;19973;-47
2022/10/05 04:03:20;;;;;;;;;;;28.40;92.00;;;;;;5116160;27;24090;-46
2022/10/05 04:05:49;;;;;;;;;;;28.30;92.10;;;;;;5129032;27;24067;-53
2022/10/05 04:08:33;;;;;;;;;;;28.40;92.20;;;;;;5168689;27;20048;-45
2022/10/05 04:11:02;;;;;;;;;;;28.40;92.20;;;;;;5168759;27;19914;-46
2022/10/05 04:13:33;;;;;;;;;;;28.40;92.20;;;;;;5168592;27;25111;-51
2022/10/05 04:16:03;;;;;;;;;;;28.40;92.20;;;;;;5168692;27;19911;-46
2022/10/05 04:18:35;;;;;;;;;;;28.40;92.20;;;;;;5168251;27;24079;-45
2022/10/05 04:21:13;;;;;;;;;;;28.40;92.30;;;;;;5168862;27;19906;-43
2022/10/05 04:23:39;;;;;;;;;;;28.40;92.30;;;;;;5168415;27;19956;-54
2022/10/05 04:26:08;;;;;;;;;;;28.40;92.30;;;;;;5167968;27;24144;-45
2022/10/05 04:28:44;;;;;;;;;;;28.40;92.30;;;;;;5168474;27;20092;-48
2022/10/05 04:31:14;;;;;;;;;;;28.50;92.30;;;;;;5167887;27;19942;-47
2022/10/05 04:33:43;;;;;;;;;;;28.40;92.20;;;;;;5168512;27;19906;-47
2022/10/05 04:36:18;;;;;;;;;;;28.40;92.20;;;;;;5168305;27;24087;-46
2022/10/05 04:39:10;;;;;;;;;;;28.40;92.20;;;;;;5167446;27;19903;-46
2022/10/05 04:41:54;;;;;;;;;;;28.40;92.10;;;;;;5163787;27;20075;-53
2022/10/05 04:44:39;;;;;;;;;;;28.40;92.00;;;;;;5167907;27;20101;-48
2022/10/05 04:47:13;;;;;;;;;;;28.40;92.00;;;;;;5167731;27;25089;-47
2022/10/05 04:49:59;;;;;;;;;;;28.40;92.00;;;;;;5167766;27;20114;-47
2022/10/05 04:52:37;;;;;;;;;;;28.40;92.10;;;;;;5167472;27;24065;-48
2022/10/05 04:55:03;;;;;;;;;;;28.40;92.10;;;;;;5167403;27;20087;-49
2022/10/05 04:57:40;;;;;;;;;;;28.40;92.10;;;;;;5167189;27;24097;-46
2022/10/05 05:00:27;;;;;;;;;;;28.40;92.00;;;;;;5166661;27;24099;-49
2022/10/05 05:03:15;;;;;;;;;;;28.40;92.00;;;;;;5166887;27;19903;-48
2022/10/05 05:05:59;;;;;;;;;;;28.40;92.00;;;;;;5167506;27;19973;-47
2022/10/05 05:08:31;;;;;;;;;;;28.40;92.00;;;;;;5167116;27;20033;-45
2022/10/05 05:11:07;;;;;;;;;;;28.40;92.00;;;;;;5167801;27;20159;-45
2022/10/05 05:13:51;;;;;;;;;;;28.40;92.00;;;;;;5167001;27;24093;-54
2022/10/05 05:16:21;;;;;;;;;;;28.40;92.00;;;;;;5167503;27;24110;-48
2022/10/05 05:18:49;;;;;;;;;;;28.40;92.00;;;;;;5167356;27;19950;-42
2022/10/05 05:21:16;;;;;;;;;;;28.40;92.00;;;;;;5145174;27;20099;-47
2022/10/05 05:23:48;;;;;;;;;;;28.30;91.90;;;;;;5108400;27;19903;-45
2022/10/05 05:26:21;;;;;;;;;;;28.30;91.80;;;;;;5166592;27;25064;-48
2022/10/05 05:29:22;;;;;;;;;;;28.30;91.80;;;;;;5167367;27;19903;-47
2022/10/05 05:32:01;;;;;;;;;;;28.30;91.70;;;;;;5062860;28;24098;-50
2022/10/05 05:34:39;;;;;;;;;;;28.30;91.60;;;;;;5153644;27;24057;-46
2022/10/05 05:37:23;;;;;;;;;;;28.30;91.60;;;;;;5166897;27;24079;-48
2022/10/05 05:40:05;;;;;;;;;;;28.30;91.50;;;;;;5166662;27;19911;-48
2022/10/05 05:42:43;;;;;;;;;;;28.30;91.50;;;;;;5166625;27;19903;-52
2022/10/05 05:45:18;;;;;;;;;;;28.20;91.50;;;;;;5166970;27;19907;-43
2022/10/05 05:47:50;;;;;;;;;;;28.20;91.60;;;;;;5166678;27;19938;-46
2022/10/05 05:50:16;;;;;;;;;;;28.30;91.60;;;;;;5166424;27;24077;-48
2022/10/05 05:52:48;;;;;;;;;;;28.30;91.60;;;;;;5166707;27;19903;-46
2022/10/05 05:55:18;;;;;;;;;;;28.30;91.60;;;;;;5166735;27;20042;-44
2022/10/05 05:57:47;;;;;;;;;;;28.20;91.50;;;;;;5166275;27;19952;-49
2022/10/05 06:00:13;;;;;;;;;;;28.30;91.50;;;;;;5166658;27;24112;-45
2022/10/05 06:02:42;;;;;;;;;;;28.20;91.50;;;;;;5165925;27;25108;-47
2022/10/05 06:05:14;;;;;;;;;;;28.20;91.40;;;;;;5166187;27;19907;-45
2022/10/05 06:07:40;;;;;;;;;;;28.30;91.40;;;;;;5165974;27;24096;-47
2022/10/05 06:10:33;;;;;;;;;;;28.20;91.30;;;;;;5165572;27;19907;-51
2022/10/05 06:13:02;;;;;;;;;;;28.20;91.30;;;;;;5126768;27;20151;-47
2022/10/05 06:15:40;;;;;;;;;;;28.20;91.30;;;;;;5166058;27;20079;-45
2022/10/05 06:18:13;;;;;;;;;;;28.20;91.20;;;;;;5165864;27;20041;-48
2022/10/05 06:20:43;;;;;;;;;;;28.20;91.20;;;;;;5165814;27;24082;-48
2022/10/05 06:23:16;;;;;;;;;;;28.20;91.20;;;;;;5165921;27;19917;-51
2022/10/05 06:25:42;;;;;;;;;;;28.20;91.20;;;;;;5165916;27;20218;-49
2022/10/05 06:28:10;;;;;;;;;;;28.20;91.20;;;;;;5165785;27;19969;-47
2022/10/05 06:30:39;;;;;;;;;;;28.20;91.10;;;;;;5165773;27;24054;-47
2022/10/05 06:33:05;;;;;;;;;;;28.20;91.10;;;;;;5165728;27;19931;-48
2022/10/05 06:35:43;;;;;;;;;;;28.20;91.10;;;;;;5165820;27;19907;-48
2022/10/05 06:38:09;;;;;;;;;;;28.20;91.20;;;;;;5165357;27;20098;-49
2022/10/05 06:40:43;;;;;;;;;;;28.20;91.20;;;;;;5165558;27;24060;-49
2022/10/05 06:43:14;;;;;;;;;;;28.20;91.20;;;;;;5165082;27;20252;-51
2022/10/05 06:45:47;;;;;;;;;;;28.20;91.20;;;;;;5166245;27;19907;-48
2022/10/05 06:48:13;;;;;;;;;;;28.20;91.20;;;;;;5166284;27;19911;-49
2022/10/05 06:50:42;;;;;;;;;;;28.20;91.20;;;;;;5165904;27;19903;-49
2022/10/05 06:53:26;;;;;;;;;;;28.20;91.20;;;;;;5165471;27;19903;-47
2022/10/05 06:56:10;;;;;;;;;;;28.10;91.20;;;;;;5165847;27;20038;-47
2022/10/05 06:58:36;;;;;;;;;;;28.10;91.20;;;;;;5165424;27;20032;-46
2022/10/05 07:01:10;;;;;;;;;;;28.10;91.20;;;;;;5166025;27;19907;-48
2022/10/05 07:03:44;;;;;;;;;;;28.20;91.20;;;;;;5165018;27;19909;-47
2022/10/05 07:06:22;;;;;;;;;;;28.10;91.20;;;;;;5165472;27;24076;-50
2022/10/05 07:09:27;;;;;;;;;;;28.10;91.20;;;;;;5165336;27;19910;-51
2022/10/05 07:12:02;;;;;;;;;;;28.10;91.20;;;;;;5060948;28;19916;-50
2022/10/05 07:14:31;;;;;;;;;;;28.10;91.30;;;;;;5061259;28;20043;-45
2022/10/05 07:17:00;;;;;;;;;;;28.10;91.40;;;;;;5118413;27;25067;-49
2022/10/05 07:19:44;;;;;;;;;;;28.10;91.40;;;;;;5165151;27;20034;-47
2022/10/05 07:22:13;;;;;;;;;;;28.10;91.50;;;;;;5166692;27;20132;-52
2022/10/05 07:25:18;;;;;;;;;;;28.10;91.60;;;;;;5169518;27;20147;-50
2022/10/05 07:27:47;;;;;;;;;;;28.10;91.60;;;;;;5065431;28;20127;-48
2022/10/05 07:30:14;;;;;;;;;;;28.10;91.70;;;;;;5062973;28;19979;-48
2022/10/05 07:33:01;;;;;;;;;;;28.10;91.80;;;;;;5063587;28;24094;-44
2022/10/05 07:38:37;;;;;;;;;;;28.10;91.80;;;;;;5063648;28;20101;-49
2022/10/05 07:41:08;;;;;;;;;;;28.10;91.90;;;;;;5099009;27;25083;-42
2022/10/05 07:43:34;;;;;;;;;;;28.10;92.00;;;;;;5150736;27;19961;-44
2022/10/05 07:46:20;;;;;;;;;;;28.10;91.90;;;;;;5169297;27;19931;-41
2022/10/05 07:48:49;;;;;;;;;;;28.10;92.00;;;;;;5168736;27;24079;-40
2022/10/05 07:51:23;;;;;;;;;;;28.10;92.10;;;;;;5169057;27;19906;-49
2022/10/05 07:53:52;;;;;;;;;;;28.10;92.10;;;;;;5168982;27;20089;-43
2022/10/05 07:56:21;;;;;;;;;;;28.10;92.10;;;;;;5169240;27;19938;-50
2022/10/05 07:58:50;;;;;;;;;;;28.00;92.10;;;;;;5168858;27;20268;-44
2022/10/05 08:01:19;;;;;;;;;;;28.00;92.10;;;;;;5169341;27;19913;-51
2022/10/05 08:03:57;;;;;;;;;;;28.10;92.20;;;;;;5150272;27;20129;-47
2022/10/05 08:06:29;;;;;;;;;;;28.00;92.20;;;;;;5168860;27;19906;-50
2022/10/05 08:08:59;;;;;;;;;;;28.00;92.30;;;;;;5169124;27;20003;-53
2022/10/05 08:11:30;;;;;;;;;;;28.00;92.30;;;;;;5168909;27;20011;-48
2022/10/05 08:14:07;;;;;;;;;;;28.00;92.40;;;;;;5168641;27;20010;-47
2022/10/05 08:16:36;;;;;;;;;;;28.00;92.40;;;;;;5168688;27;19946;-52
2022/10/05 08:19:21;;;;;;;;;;;28.00;92.40;;;;;;5168329;27;20028;-48
2022/10/05 08:21:51;;;;;;;;;;;28.00;92.50;;;;;;5168826;27;20029;-45
2022/10/05 08:24:17;;;;;;;;;;;28.00;92.40;;;;;;5168088;27;24060;-45
2022/10/05 08:26:58;;;;;;;;;;;28.00;92.40;;;;;;5168278;27;19922;-48
2022/10/05 08:29:34;;;;;;;;;;;28.00;92.40;;;;;;5167983;27;20340;-43
2022/10/05 08:32:02;;;;;;;;;;;28.00;92.40;;;;;;5167896;27;24128;-42
2022/10/05 08:34:31;;;;;;;;;;;28.00;92.40;;;;;;5167085;27;20037;-43
2022/10/05 08:37:20;;;;;;;;;;;28.00;92.40;;;;;;5168835;27;19918;-42
2022/10/05 08:40:00;;;;;;;;;;;28.00;92.40;;;;;;5102625;27;19976;-43
2022/10/05 08:42:26;;;;;;;;;;;28.00;92.50;;;;;;5088712;27;20029;-43
2022/10/05 08:44:55;;;;;;;;;;;28.00;92.50;;;;;;5167933;27;20037;-44
2022/10/05 08:47:33;;;;;;;;;;;28.00;92.50;;;;;;5167910;27;19903;-43
2022/10/05 08:50:35;;;;;;;;;;;28.00;92.60;;;;;;5167588;27;20033;-48
2022/10/05 08:53:18;;;;;;;;;;;27.90;92.50;;;;;;5064058;28;19911;-48
2022/10/05 08:56:02;;;;;;;;;;;28.00;92.60;;;;;;5159006;27;19907;-51
2022/10/05 08:58:31;;;;;;;;;;;28.00;92.80;;;;;;5167528;27;20213;-44
2022/10/05 09:01:03;;;;;;;;;;;28.00;92.60;;;;;;5167927;27;19977;-46
2022/10/05 09:03:40;;;;;;;;;;;27.90;92.60;;;;;;5167922;27;24077;-48
2022/10/05 09:06:13;;;;;;;;;;;27.90;92.60;;;;;;5167838;27;20041;-46
2022/10/05 09:08:46;;;;;;;;;;;27.90;92.50;;;;;;5167208;27;20034;-46
2022/10/05 09:11:12;;;;;;;;;;;27.90;92.50;;;;;;5167838;27;19907;-45
2022/10/05 09:13:47;;;;;;;;;;;27.90;92.50;;;;;;5167888;27;24086;-42
2022/10/05 09:16:26;;;;;;;;;;;27.90;92.40;;;;;;5167867;27;19907;-43
2022/10/05 09:19:05;;;;;;;;;;;27.90;92.40;;;;;;5167303;27;20052;-43
2022/10/05 09:21:56;;;;;;;;;;;27.80;92.40;;;;;;5167248;27;19982;-45
2022/10/05 09:24:22;;;;;;;;;;;27.80;92.30;;;;;;5167848;27;20179;-46
2022/10/05 09:26:51;;;;;;;;;;;27.80;92.30;;;;;;5166790;27;25105;-45
2022/10/05 09:29:26;;;;;;;;;;;27.80;92.30;;;;;;5167231;27;20102;-46
2022/10/05 09:32:05;;;;;;;;;;;27.80;92.30;;;;;;5167473;27;20226;-43
2022/10/05 09:34:32;;;;;;;;;;;27.80;92.30;;;;;;5166952;27;20119;-44
2022/10/05 09:37:11;;;;;;;;;;;27.80;92.30;;;;;;5167444;27;20045;-45
2022/10/05 09:39:42;;;;;;;;;;;27.80;92.40;;;;;;5166783;27;20036;-45
2022/10/05 09:42:19;;;;;;;;;;;27.80;92.40;;;;;;5166738;27;19910;-47
2022/10/05 09:44:55;;;;;;;;;;;27.70;92.40;;;;;;5166315;27;19902;-48
2022/10/05 09:47:40;;;;;;;;;;;27.70;92.40;;;;;;5166399;27;24065;-44
2022/10/05 09:50:15;;;;;;;;;;;27.70;92.50;;;;;;5166875;27;19907;-43
2022/10/05 09:53:00;;;;;;;;;;;27.70;92.40;;;;;;5166391;27;20098;-47
2022/10/05 09:55:32;;;;;;;;;;;27.70;92.40;;;;;;5166734;27;19907;-46
2022/10/05 09:58:05;;;;;;;;;;;27.70;92.40;;;;;;5166608;27;19906;-50
2022/10/05 10:00:43;;;;;;;;;;;27.70;92.40;;;;;;5166512;27;19914;-52
2022/10/05 10:03:27;;;;;;;;;;;27.70;92.40;;;;;;5166469;27;20029;-55
2022/10/05 10:05:59;;;;;;;;;;;27.70;92.30;;;;;;5166259;27;19907;-43
2022/10/05 10:08:45;;;;;;;;;;;27.70;92.40;;;;;;5166793;27;19903;-46
2022/10/05 10:11:31;;;;;;;;;;;27.60;92.40;;;;;;5166353;27;19914;-44
2022/10/05 10:13:58;;;;;;;;;;;27.70;92.40;;;;;;5166099;27;20067;-51
2022/10/05 10:16:25;;;;;;;;;;;27.70;92.40;;;;;;5166164;27;19907;-45
2022/10/05 10:19:06;;;;;;;;;;;27.70;92.40;;;;;;5166180;27;20191;-45
2022/10/05 10:21:49;;;;;;;;;;;27.70;92.30;;;;;;5143915;27;19948;-48
2022/10/05 10:24:24;;;;;;;;;;;27.70;92.30;;;;;;5061145;28;20194;-45
2022/10/05 10:26:50;;;;;;;;;;;27.70;92.30;;;;;;5043202;28;19961;-55
2022/10/05 10:29:36;;;;;;;;;;;27.60;92.30;;;;;;5061244;28;24078;-44
2022/10/05 10:32:11;;;;;;;;;;;27.60;92.30;;;;;;5060884;28;19913;-47
2022/10/05 10:34:40;;;;;;;;;;;27.60;92.30;;;;;;5060890;28;20248;-44
2022/10/05 10:37:26;;;;;;;;;;;27.60;92.30;;;;;;5060597;28;19915;-44
2022/10/05 10:40:02;;;;;;;;;;;27.60;92.40;;;;;;5061095;28;19905;-44
2022/10/05 10:42:46;;;;;;;;;;;27.60;92.40;;;;;;5061680;28;20125;-45
2022/10/05 10:45:15;;;;;;;;;;;27.60;92.30;;;;;;5060860;28;20272;-50
2022/10/05 10:47:44;;;;;;;;;;;27.50;92.30;;;;;;5061001;28;19912;-44
2022/10/05 10:50:13;;;;;;;;;;;27.50;92.50;;;;;;5137063;27;20183;-51
2022/10/05 10:52:42;;;;;;;;;;;27.50;92.30;;;;;;5165808;27;20029;-47
2022/10/05 10:55:34;;;;;;;;;;;27.50;92.30;;;;;;5165908;27;19911;-48
2022/10/05 10:58:06;;;;;;;;;;;27.50;92.20;;;;;;5168037;27;19907;-44
2022/10/05 11:00:32;;;;;;;;;;;27.50;92.20;;;;;;5152423;27;19913;-45
2022/10/05 11:03:04;;;;;;;;;;;27.50;92.10;;;;;;5167387;27;19903;-47
2022/10/05 11:05:49;;;;;;;;;;;27.50;92.10;;;;;;5170293;27;19914;-45
2022/10/05 11:08:15;;;;;;;;;;;27.50;92.10;;;;;;5151277;27;20080;-47
2022/10/05 11:10:52;;;;;;;;;;;27.40;92.10;;;;;;5166959;27;19914;-43
2022/10/05 11:13:37;;;;;;;;;;;27.50;92.30;;;;;;5161554;27;20047;-43
2022/10/05 11:16:06;;;;;;;;;;;27.40;92.20;;;;;;5053840;27;24066;-48
2022/10/05 11:18:38;;;;;;;;;;;27.40;92.10;;;;;;5063524;27;19909;-48
2022/10/05 11:21:19;;;;;;;;;;;27.40;92.00;;;;;;5064625;28;19909;-45
2022/10/05 11:23:46;;;;;;;;;;;27.50;92.00;;;;;;5064161;28;20212;-45
2022/10/05 11:26:17;;;;;;;;;;;27.50;92.00;;;;;;5063645;28;20058;-41
2022/10/05 11:28:59;;;;;;;;;;;27.40;91.90;;;;;;5064109;28;20230;-43
2022/10/05 11:31:43;;;;;;;;;;;27.40;91.90;;;;;;5062611;28;19951;-47
2022/10/05 11:34:30;;;;;;;;;;;27.40;91.50;;;;;;5063919;28;20196;-49
2022/10/05 11:37:05;;;;;;;;;;;27.40;91.30;;;;;;5069340;27;19919;-45
2022/10/05 11:39:38;;;;;;;;;;;27.40;91.20;;;;;;5064245;27;19905;-49
2022/10/05 11:42:04;;;;;;;;;;;27.40;91.30;;;;;;5063954;28;20103;-49
2022/10/05 11:44:50;;;;;;;;;;;27.40;91.40;;;;;;5063687;28;24060;-46
2022/10/05 11:47:16;;;;;;;;;;;27.40;91.40;;;;;;5062104;28;20050;-46
2022/10/05 11:49:52;;;;;;;;;;;27.50;91.30;;;;;;5060168;28;19940;-45
2022/10/05 11:52:39;;;;;;;;;;;27.50;91.40;;;;;;5060249;28;19931;-50
2022/10/05 11:55:05;;;;;;;;;;;27.50;91.40;;;;;;5060596;28;20315;-54
2022/10/05 11:57:49;;;;;;;;;;;27.50;91.60;;;;;;5060385;28;19945;-52
2022/10/05 12:00:30;;;;;;;;;;;27.50;91.30;;;;;;5060301;28;19913;-59
2022/10/05 12:03:15;;;;;;;;;;;27.50;91.40;;;;;;5061855;28;19996;-50
2022/10/05 12:05:44;;;;;;;;;;;27.50;91.50;;;;;;5063800;28;19908;-46
2022/10/05 12:08:25;;;;;;;;;;;27.50;91.50;;;;;;5063194;28;20053;-50
2022/10/05 12:10:51;;;;;;;;;;;27.50;91.60;;;;;;5063864;28;19972;-49
2022/10/05 12:13:36;;;;;;;;;;;27.60;91.70;;;;;;5063710;28;20342;-44
2022/10/05 12:16:06;;;;;;;;;;;27.60;91.50;;;;;;5063806;28;19908;-48
2022/10/05 12:18:37;;;;;;;;;;;27.70;91.40;;;;;;5063326;28;20042;-49
2022/10/05 12:21:13;;;;;;;;;;;27.70;91.10;;;;;;5045702;28;20050;-45
2022/10/05 12:23:54;;;;;;;;;;;27.80;91.30;;;;;;5063066;28;24058;-48
2022/10/05 12:26:39;;;;;;;;;;;27.80;91.10;;;;;;5062379;27;20058;-46
2022/10/05 12:29:11;;;;;;;;;;;27.80;91.30;;;;;;5062829;28;19968;-44
2022/10/05 12:31:37;;;;;;;;;;;27.80;91.30;;;;;;5063295;28;24091;-44
2022/10/05 12:34:15;;;;;;;;;;;27.90;91.40;;;;;;5063157;28;19901;-49
2022/10/05 12:36:56;;;;;;;;;;;27.90;91.30;;;;;;5063378;28;19912;-48
2022/10/05 12:39:22;;;;;;;;;;;27.90;91.10;;;;;;5062900;28;24069;-49
2022/10/05 12:42:01;;;;;;;;;;;28.00;91.20;;;;;;5063306;28;20218;-47
2022/10/05 12:44:50;;;;;;;;;;;28.00;91.20;;;;;;5062926;28;19912;-47
2022/10/05 12:47:42;;;;;;;;;;;28.10;91.20;;;;;;5081731;28;19916;-49
2022/10/05 12:50:18;;;;;;;;;;;28.10;91.20;;;;;;5079084;27;19916;-46
2022/10/05 12:53:07;;;;;;;;;;;28.10;91.20;;;;;;5063166;28;19904;-50
2022/10/05 12:55:48;;;;;;;;;;;28.10;91.00;;;;;;5068017;28;25090;-48
2022/10/05 12:58:33;;;;;;;;;;;28.20;91.20;;;;;;5062701;27;19908;-55
2022/10/05 13:01:02;;;;;;;;;;;28.20;91.20;;;;;;5063247;28;19965;-47
2022/10/05 13:03:33;;;;;;;;;;;28.20;91.10;;;;;;5044538;28;25061;-47
2022/10/05 13:06:06;;;;;;;;;;;28.20;91.10;;;;;;5062537;28;19947;-46
2022/10/05 13:08:33;;;;;;;;;;;28.20;91.20;;;;;;5062719;28;19912;-50
2022/10/05 13:10:59;;;;;;;;;;;28.30;91.20;;;;;;5063147;27;19916;-44
2022/10/05 13:13:37;;;;;;;;;;;28.30;91.10;;;;;;5062592;28;19908;-44
2022/10/05 13:16:13;;;;;;;;;;;28.30;91.10;;;;;;5062944;28;19909;-45
2022/10/05 13:18:40;;;;;;;;;;;28.30;91.10;;;;;;5062376;28;24057;-47
2022/10/05 13:21:15;;;;;;;;;;;28.30;91.10;;;;;;5062352;28;24108;-47
2022/10/05 13:23:55;;;;;;;;;;;28.30;90.90;;;;;;5062400;28;19911;-44
2022/10/05 13:26:26;;;;;;;;;;;28.30;91.00;;;;;;5062449;28;24073;-44
2022/10/05 13:29:15;;;;;;;;;;;28.40;91.10;;;;;;5062134;28;24063;-48
2022/10/05 13:31:46;;;;;;;;;;;28.40;91.00;;;;;;5067444;28;19908;-49
2022/10/05 13:34:27;;;;;;;;;;;28.40;91.10;;;;;;5062311;28;19943;-44
2022/10/05 13:37:02;;;;;;;;;;;28.40;91.10;;;;;;5063285;28;24086;-46
2022/10/05 13:39:34;;;;;;;;;;;28.40;91.20;;;;;;5062508;28;19905;-48
2022/10/05 13:42:00;;;;;;;;;;;28.50;91.20;;;;;;5062549;28;19981;-44
2022/10/05 13:44:45;;;;;;;;;;;28.50;91.20;;;;;;5062067;28;19904;-48
2022/10/05 13:47:30;;;;;;;;;;;28.50;91.20;;;;;;5062292;28;20185;-48
2022/10/05 13:49:58;;;;;;;;;;;28.50;91.20;;;;;;5044536;28;25105;-51
2022/10/05 13:52:24;;;;;;;;;;;28.50;91.30;;;;;;5062210;28;19912;-51
2022/10/05 13:54:50;;;;;;;;;;;28.60;91.20;;;;;;5044528;28;19932;-46
2022/10/05 13:57:17;;;;;;;;;;;28.60;91.20;;;;;;5061921;27;19980;-51
2022/10/05 13:59:48;;;;;;;;;;;28.60;91.20;;;;;;5061590;28;24088;-47
2022/10/05 14:02:20;;;;;;;;;;;28.60;91.00;;;;;;5061896;28;19905;-46
2022/10/05 14:04:50;;;;;;;;;;;28.60;91.00;;;;;;5061999;27;19914;-48
2022/10/05 14:07:34;;;;;;;;;;;28.70;91.10;;;;;;5062159;28;20052;-43
2022/10/05 14:10:03;;;;;;;;;;;28.70;90.80;;;;;;5061512;27;20244;-44
2022/10/05 14:12:36;;;;;;;;;;;28.70;90.90;;;;;;5044095;28;24082;-42
2022/10/05 14:15:11;;;;;;;;;;;28.70;90.90;;;;;;5061533;28;24073;-44
2022/10/05 14:17:42;;;;;;;;;;;28.70;91.00;;;;;;5062481;28;19915;-43
2022/10/05 14:20:30;;;;;;;;;;;28.70;91.00;;;;;;5061332;28;19955;-50
2022/10/05 14:22:59;;;;;;;;;;;28.70;91.00;;;;;;5061464;28;20231;-47
2022/10/05 14:25:27;;;;;;;;;;;28.80;91.00;;;;;;5061300;27;19913;-49
2022/10/05 14:27:56;;;;;;;;;;;28.70;91.10;;;;;;5061346;28;19927;-44
2022/10/05 14:30:23;;;;;;;;;;;28.70;91.10;;;;;;5061705;28;19909;-47
2022/10/05 14:32:59;;;;;;;;;;;28.80;91.10;;;;;;5060223;28;25076;-49
2022/10/05 14:35:28;;;;;;;;;;;28.80;91.10;;;;;;5061438;28;24096;-46
2022/10/05 14:37:59;;;;;;;;;;;28.80;91.10;;;;;;5061908;28;20201;-46
2022/10/05 14:40:28;;;;;;;;;;;28.80;91.00;;;;;;5061774;28;19909;-45
2022/10/05 14:42:55;;;;;;;;;;;28.80;90.90;;;;;;5061767;28;19919;-44
2022/10/05 14:45:23;;;;;;;;;;;28.90;91.00;;;;;;5061357;28;19916;-43
2022/10/05 14:47:49;;;;;;;;;;;28.90;90.90;;;;;;5061136;28;24075;-46
2022/10/05 14:50:17;;;;;;;;;;;28.90;90.60;;;;;;5061128;28;24074;-48
2022/10/05 14:52:48;;;;;;;;;;;28.90;90.80;;;;;;5061276;28;25058;-46
2022/10/05 14:55:20;;;;;;;;;;;28.90;91.00;;;;;;5061314;28;24092;-51
2022/10/05 14:58:04;;;;;;;;;;;28.90;90.90;;;;;;5061335;28;19916;-43
2022/10/05 15:00:33;;;;;;;;;;;29.00;90.90;;;;;;5060777;28;19916;-47
2022/10/05 15:03:18;;;;;;;;;;;29.00;90.90;;;;;;5060413;28;24075;-47